Time;durP1;ratioP1;P1;durP2;ratioP2;P2;SDS_P1;SDS_P2;PMS_P1;PMS_P2;Temp;Humidity;BMP_temperature;BMP_pressure;BME280_temperature;BME280_humidity;BME280_pressure;Samples;Min_cycle;Max_cycle;Signal;HPM_P1;HPM_P2
2022/06/02 01:53:16;;;;;;;;;;;;;;;;;;;;;
2022/06/02 02:03:29;;;;;;;5.90;2.10;;;16.60;88.10;;;;;;4895065;29;20634;-89
2022/06/02 02:20:28;;;;;;;3.50;2.00;;;16.20;90.20;;;;;;4907057;29;20444;-87
2022/06/02 05:21:21;;;;;;;4.30;2.30;;;16.50;90.90;;;;;;4966486;29;20514;-86
2022/06/02 05:24:13;;;;;;;4.77;2.40;;;16.70;90.70;;;;;;4944435;29;20426;-87
2022/06/02 05:27:20;;;;;;;6.40;2.50;;;16.70;90.80;;;;;;4945208;29;20809;-88
2022/06/02 05:30:13;;;;;;;4.97;2.43;;;16.70;90.20;;;;;;4946862;29;20537;-89
2022/06/02 05:33:16;;;;;;;5.80;2.03;;;16.70;90.10;;;;;;4955767;29;20578;-88
2022/06/02 05:36:07;;;;;;;6.30;3.20;;;16.80;90.00;;;;;;4945469;29;20455;-88
2022/06/02 05:38:55;;;;;;;4.17;2.57;;;16.70;89.10;;;;;;4945278;29;20831;-88
2022/06/02 05:41:38;;;;;;;10.47;2.63;;;16.70;89.30;;;;;;4944850;29;20456;-88
2022/06/02 05:44:15;;;;;;;4.20;2.30;;;16.70;88.10;;;;;;4950620;29;20435;-88
2022/06/02 05:47:03;;;;;;;3.83;2.30;;;16.80;88.90;;;;;;4945107;29;20448;-88
2022/06/02 05:49:43;;;;;;;5.43;2.50;;;16.60;89.50;;;;;;4949302;29;20474;-90
2022/06/02 05:52:34;;;;;;;4.47;2.37;;;16.70;89.20;;;;;;4950199;29;20499;-90
2022/06/02 05:55:34;;;;;;;4.23;2.40;;;16.60;89.50;;;;;;4962911;28;20451;-88
2022/06/02 05:58:27;;;;;;;3.80;2.30;;;16.70;88.80;;;;;;4960287;28;20961;-90
2022/06/02 06:01:07;;;;;;;5.20;3.00;;;16.80;88.30;;;;;;4961596;28;20412;-87
2022/06/02 06:03:54;;;;;;;6.73;2.53;;;16.90;86.60;;;;;;4962650;28;20529;-88
2022/06/02 06:06:31;;;;;;;4.30;2.30;;;16.80;86.50;;;;;;4962232;28;20451;-87
2022/06/02 06:09:15;;;;;;;;;;;;;;;;;;;;;
2022/06/02 06:12:23;;;;;;;4.97;2.37;;;17.00;86.60;;;;;;4947047;29;20559;-88
2022/06/02 06:14:58;;;;;;;4.17;2.40;;;17.10;86.90;;;;;;4935022;29;20543;-89
2022/06/02 06:17:42;;;;;;;4.00;2.40;;;17.10;86.50;;;;;;4953023;29;20431;-88
2022/06/02 06:20:17;;;;;;;4.53;2.63;;;17.00;86.20;;;;;;4958700;28;20464;-89
2022/06/02 06:23:13;;;;;;;5.10;2.70;;;17.10;86.60;;;;;;4945855;29;20852;-88
2022/06/02 06:25:57;;;;;;;6.37;2.73;;;17.20;86.90;;;;;;4954661;29;20441;-88
2022/06/02 06:28:31;;;;;;;4.40;2.43;;;17.30;86.80;;;;;;4945539;29;20404;-89
2022/06/02 06:31:07;;;;;;;3.60;2.30;;;17.20;87.20;;;;;;4947381;29;20515;-90
2022/06/02 06:33:56;;;;;;;5.30;2.73;;;17.10;87.90;;;;;;4957757;29;20450;-88
2022/06/02 06:36:38;;;;;;;3.43;2.30;;;17.00;88.80;;;;;;4946395;29;20476;-87
2022/06/02 06:39:23;;;;;;;5.87;2.90;;;17.00;88.60;;;;;;4943750;29;20428;-89
2022/06/02 06:42:18;;;;;;;5.77;2.60;;;17.00;88.60;;;;;;4942874;29;20510;-87
2022/06/02 06:45:03;;;;;;;7.33;2.90;;;17.10;89.20;;;;;;4942011;29;20962;-88
2022/06/02 06:47:39;;;;;;;3.83;2.33;;;17.20;88.00;;;;;;4944990;29;20437;-88
2022/06/02 06:50:17;;;;;;;3.60;2.47;;;17.10;88.60;;;;;;4945792;29;20542;-88
2022/06/02 06:53:15;;;;;;;5.47;2.87;;;17.30;88.50;;;;;;4943603;29;20544;-87
2022/06/02 06:56:01;;;;;;;6.03;3.10;;;17.50;87.90;;;;;;4947537;29;20500;-88
2022/06/02 06:58:40;;;;;;;5.93;3.00;;;17.50;87.50;;;;;;4948963;29;20448;-88
2022/06/02 07:01:19;;;;;;;5.77;2.60;;;17.30;88.10;;;;;;4946785;29;20461;-88
2022/06/02 07:03:56;;;;;;;5.93;2.90;;;17.50;88.50;;;;;;4946345;29;20410;-88
2022/06/02 07:06:33;;;;;;;3.83;2.57;;;17.50;87.30;;;;;;4943760;29;20920;-89
2022/06/02 07:09:10;;;;;;;8.70;2.50;;;17.50;86.70;;;;;;4943917;29;20899;-88
2022/06/02 07:14:39;;;;;;;6.50;2.80;;;17.60;86.30;;;;;;4951559;29;20555;-88
2022/06/02 07:17:16;;;;;;;5.10;2.70;;;17.80;86.80;;;;;;4947173;29;20445;-87
2022/06/02 07:19:54;;;;;;;6.83;2.13;;;18.00;86.10;;;;;;4946265;29;20521;-87
2022/06/02 07:22:27;;;;;;;4.60;2.40;;;18.00;84.70;;;;;;4948358;29;20485;-85
2022/06/02 07:25:03;;;;;;;4.47;2.40;;;18.00;84.80;;;;;;4946432;29;20512;-87
2022/06/02 07:27:37;;;;;;;3.27;1.90;;;18.00;84.30;;;;;;4946378;29;20528;-88
2022/06/02 07:30:21;;;;;;;4.17;2.07;;;18.00;85.10;;;;;;4948357;29;20514;-87
2022/06/02 07:33:18;;;;;;;6.60;2.53;;;18.10;83.70;;;;;;4951616;29;20473;-88
2022/06/02 07:36:30;;;;;;;4.63;2.40;;;18.10;83.70;;;;;;4952454;29;20474;-89
2022/06/02 07:39:10;;;;;;;7.10;2.23;;;18.10;83.50;;;;;;4952436;29;20490;-88
2022/06/02 07:41:54;;;;;;;4.20;2.77;;;18.30;83.90;;;;;;4954260;29;20442;-87
2022/06/02 07:44:48;;;;;;;7.83;2.30;;;18.40;83.40;;;;;;4949388;29;20431;-88
2022/06/02 07:47:37;;;;;;;5.73;2.27;;;18.30;82.10;;;;;;4943414;29;20974;-86
2022/06/02 07:50:15;;;;;;;3.50;2.03;;;18.40;82.50;;;;;;4945595;29;20474;-87
2022/06/02 07:52:54;;;;;;;6.10;2.20;;;18.50;81.10;;;;;;4953654;29;20545;-88
2022/06/02 07:55:33;;;;;;;4.47;2.90;;;18.40;81.20;;;;;;4958279;29;20485;-89
2022/06/02 07:58:20;;;;;;;3.73;2.30;;;18.50;82.00;;;;;;4951855;29;20558;-88
2022/06/02 08:00:53;;;;;;;4.80;2.63;;;18.60;81.20;;;;;;4946426;29;20481;-88
2022/06/02 08:03:46;;;;;;;4.57;2.30;;;18.50;81.00;;;;;;4943923;29;20566;-89
2022/06/02 08:06:24;;;;;;;4.33;1.93;;;18.40;81.10;;;;;;4943265;29;20445;-88
2022/06/02 08:09:35;;;;;;;8.00;2.60;;;18.30;81.40;;;;;;4943689;29;20449;-87
2022/06/02 08:12:12;;;;;;;4.57;2.20;;;18.50;81.20;;;;;;4919320;29;20544;-87
2022/06/02 08:14:50;;;;;;;4.83;2.47;;;18.70;80.40;;;;;;4952879;29;20473;-88
2022/06/02 08:17:23;;;;;;;5.20;2.23;;;18.70;80.40;;;;;;4942862;29;20419;-87
2022/06/02 08:20:07;;;;;;;3.63;2.20;;;18.80;80.80;;;;;;4942831;29;20880;-86
2022/06/02 08:22:45;;;;;;;5.17;2.40;;;18.80;80.50;;;;;;4944126;29;20951;-88
2022/06/02 08:25:14;;;;;;;4.67;2.70;;;18.90;80.80;;;;;;4945511;29;20855;-88
2022/06/02 08:27:53;;;;;;;3.83;2.20;;;18.80;79.70;;;;;;4943008;29;20879;-88
2022/06/02 08:30:25;;;;;;;4.10;2.10;;;19.10;79.80;;;;;;4945460;29;20469;-87
2022/06/02 08:51:48;;;;;;;8.63;2.57;;;19.30;79.30;;;;;;1025502;23;21527;-87
2022/06/02 09:05:26;;;;;;;4.13;2.37;;;20.00;76.60;;;;;;4840429;29;20439;-89
2022/06/02 09:08:19;;;;;;;4.17;2.00;;;20.10;76.10;;;;;;4800010;29;20472;-88
2022/06/02 09:11:30;;;;;;;4.30;2.07;;;20.00;75.20;;;;;;4939549;28;20509;-88
2022/06/02 09:14:31;;;;;;;3.73;1.83;;;19.80;76.90;;;;;;4953881;28;20485;-87
2022/06/02 09:17:41;;;;;;;3.60;2.13;;;19.80;76.80;;;;;;4959392;29;20906;-88
2022/06/02 09:20:34;;;;;;;5.87;2.07;;;19.70;77.30;;;;;;4959549;29;20468;-89
2022/06/02 09:23:40;;;;;;;4.87;2.10;;;19.80;76.90;;;;;;4959545;28;20490;-87
2022/06/02 09:26:21;;;;;;;5.00;2.03;;;19.90;76.30;;;;;;4968066;29;20445;-88
2022/06/02 09:29:22;;;;;;;5.80;2.40;;;20.10;75.30;;;;;;4974525;29;20564;-88
2022/06/02 09:32:37;;;;;;;4.80;2.60;;;20.10;76.00;;;;;;4960779;29;20882;-88
2022/06/02 09:35:24;;;;;;;6.40;2.40;;;20.10;76.00;;;;;;4941431;29;20502;-86
2022/06/02 09:38:38;;;;;;;4.70;2.30;;;20.20;75.30;;;;;;4938817;29;20952;-88
2022/06/02 09:45:02;;;;;;;5.47;2.87;;;20.50;75.20;;;;;;4954594;29;20424;-87
2022/06/02 09:51:31;;;;;;;7.40;2.37;;;20.70;75.10;;;;;;4945854;28;20461;-88
2022/06/02 09:54:42;;;;;;;7.33;2.50;;;20.80;74.60;;;;;;4944756;29;20622;-88
2022/06/02 09:58:05;;;;;;;4.30;2.50;;;20.70;74.80;;;;;;4956253;28;20480;-88
2022/06/02 10:00:57;;;;;;;4.20;2.70;;;20.90;74.90;;;;;;4968346;29;20453;-86
2022/06/02 10:03:45;;;;;;;8.83;3.13;;;21.00;74.70;;;;;;4959336;28;20504;-89
2022/06/02 10:06:36;;;;;;;4.37;2.40;;;21.10;74.70;;;;;;4972322;29;20819;-88
2022/06/02 10:09:18;;;;;;;4.33;2.30;;;21.10;74.20;;;;;;4973188;29;20442;-89
2022/06/02 10:15:17;;;;;;;5.37;2.80;;;21.10;74.10;;;;;;4972258;29;20464;-88
2022/06/02 10:18:09;;;;;;;8.40;2.43;;;21.40;73.30;;;;;;4981346;28;20552;-90
2022/06/02 10:21:01;;;;;;;3.70;2.40;;;21.30;72.80;;;;;;4980112;28;20498;-88
2022/06/02 10:23:52;;;;;;;4.33;2.33;;;21.20;73.20;;;;;;4970261;29;20957;-88
2022/06/02 10:26:29;;;;;;;3.90;2.40;;;21.20;73.80;;;;;;4969696;29;20441;-87
2022/06/02 10:29:32;;;;;;;3.90;2.17;;;21.30;73.20;;;;;;4965926;29;20497;-87
2022/06/02 10:32:41;;;;;;;4.87;2.50;;;21.30;73.50;;;;;;4952033;28;20485;-89
2022/06/02 10:35:46;;;;;;;6.87;3.47;;;21.30;72.90;;;;;;4964370;29;20488;-88
2022/06/02 10:38:33;;;;;;;4.90;2.20;;;21.40;72.90;;;;;;4965267;29;20485;-87
2022/06/02 10:41:14;;;;;;;4.37;2.40;;;21.30;72.50;;;;;;4978641;29;20436;-88
2022/06/02 10:44:15;;;;;;;4.90;2.30;;;21.50;72.90;;;;;;4973334;29;20537;-88
2022/06/02 10:47:35;;;;;;;5.93;2.67;;;21.30;72.60;;;;;;4969700;28;20512;-88
2022/06/02 10:53:36;;;;;;;6.10;2.87;;;21.30;72.90;;;;;;4962322;29;20462;-89
2022/06/02 10:56:47;;;;;;;4.07;2.20;;;21.40;73.20;;;;;;4976426;28;20486;-88
2022/06/02 11:00:00;;;;;;;4.73;2.50;;;21.70;72.90;;;;;;4964424;29;20465;-89
2022/06/02 11:07:15;;;;;;;3.70;2.20;;;22.00;71.60;;;;;;4979062;28;20512;-89
2022/06/02 11:10:22;;;;;;;3.80;2.40;;;21.90;71.10;;;;;;4965561;29;20803;-89
2022/06/02 11:16:52;;;;;;;3.70;2.40;;;22.00;71.80;;;;;;4956207;28;20433;-89
2022/06/02 11:19:53;;;;;;;4.37;2.40;;;21.90;71.60;;;;;;4952284;28;20445;-88
2022/06/02 11:23:05;;;;;;;8.00;2.83;;;22.10;71.50;;;;;;4964564;29;20477;-88
2022/06/02 11:26:20;;;;;;;4.70;2.60;;;22.30;70.60;;;;;;4961209;28;20437;-88
2022/06/02 11:29:11;;;;;;;4.20;2.60;;;22.20;70.60;;;;;;4908257;28;20859;-87
2022/06/02 11:32:14;;;;;;;7.70;2.53;;;21.80;71.80;;;;;;4961222;29;20473;-88
2022/06/02 11:35:29;;;;;;;3.70;2.43;;;21.70;71.90;;;;;;4964764;29;20838;-86
2022/06/02 11:38:59;;;;;;;3.80;2.20;;;21.90;72.50;;;;;;4969315;28;20472;-88
2022/06/02 11:41:38;;;;;;;7.10;3.00;;;22.10;71.50;;;;;;4964955;28;20457;-89
2022/06/02 11:44:22;;;;;;;6.13;2.60;;;22.30;71.40;;;;;;4962209;29;20568;-88
2022/06/02 11:47:40;;;;;;;5.57;2.33;;;22.50;70.70;;;;;;4960624;29;20450;-88
2022/06/02 11:56:53;;;;;;;4.70;2.67;;;23.10;68.40;;;;;;4977644;28;20449;-89
2022/06/02 12:03:37;;;;;;;7.70;2.97;;;23.40;68.20;;;;;;4951233;28;20857;-89
2022/06/02 12:13:22;;;;;;;4.83;2.63;;;23.10;67.60;;;;;;4962302;28;20477;-88
2022/06/02 12:19:38;;;;;;;4.67;2.70;;;23.20;68.80;;;;;;4967357;29;20449;-88
2022/06/02 12:22:44;;;;;;;4.80;3.00;;;23.50;68.30;;;;;;4966570;29;20481;-87
2022/06/02 12:25:30;;;;;;;5.00;2.60;;;23.50;67.00;;;;;;4971426;28;20456;-88
2022/06/02 12:28:19;;;;;;;4.23;2.60;;;23.50;67.40;;;;;;4967062;29;20481;-88
2022/06/02 12:31:22;;;;;;;6.60;2.60;;;23.60;66.90;;;;;;4967284;29;20461;-87
2022/06/02 12:34:06;;;;;;;4.53;2.20;;;23.50;67.80;;;;;;4966703;29;20460;-88
2022/06/02 12:37:03;;;;;;;4.67;2.77;;;23.40;68.00;;;;;;4967211;29;20429;-88
2022/06/02 12:39:55;;;;;;;3.67;2.20;;;23.50;68.50;;;;;;4965663;28;20453;-87
2022/06/02 12:46:24;;;;;;;4.27;2.60;;;23.70;67.60;;;;;;4964186;28;20458;-88
2022/06/02 12:50:01;;;;;;;4.60;2.93;;;24.00;67.10;;;;;;4966893;28;20448;-88
2022/06/02 12:53:00;;;;;;;4.93;2.60;;;24.10;66.40;;;;;;4945783;29;20538;-88
2022/06/02 12:56:34;;;;;;;8.47;2.70;;;23.90;66.80;;;;;;4958292;28;20485;-88
2022/06/02 13:03:15;;;;;;;5.43;3.33;;;24.20;65.90;;;;;;4931200;28;20478;-89
2022/06/02 13:06:18;;;;;;;4.23;2.17;;;24.40;65.60;;;;;;4955316;28;20465;-88
2022/06/02 13:09:24;;;;;;;5.10;2.60;;;24.50;64.40;;;;;;4962163;29;20882;-88
2022/06/02 13:12:37;;;;;;;5.90;3.03;;;24.30;65.40;;;;;;4954942;28;20507;-87
2022/06/02 13:15:30;;;;;;;5.30;2.80;;;24.30;66.00;;;;;;4963945;28;20481;-88
2022/06/02 13:18:39;;;;;;;5.00;2.90;;;24.10;65.90;;;;;;4965166;29;20493;-88
2022/06/02 13:22:02;;;;;;;5.30;2.77;;;24.30;66.40;;;;;;4943264;29;20983;-89
2022/06/02 13:25:17;;;;;;;6.17;2.50;;;24.00;66.60;;;;;;4898070;29;20475;-88
2022/06/02 13:28:22;;;;;;;4.27;2.70;;;23.80;66.40;;;;;;4963228;28;20457;-89
2022/06/02 13:31:34;;;;;;;5.27;2.90;;;23.80;67.20;;;;;;4981058;28;20460;-88
2022/06/02 13:34:50;;;;;;;4.70;2.90;;;24.10;66.70;;;;;;4981469;28;20444;-88
2022/06/02 13:37:44;;;;;;;4.70;2.90;;;23.90;66.10;;;;;;4976938;29;20477;-88
2022/06/02 13:40:35;;;;;;;4.97;3.00;;;23.90;66.50;;;;;;4965441;29;20445;-88
2022/06/02 13:43:50;;;;;;;6.00;2.80;;;23.90;66.90;;;;;;4966802;29;20564;-88
2022/06/02 13:46:54;;;;;;;4.57;2.80;;;24.00;66.80;;;;;;4963923;29;20561;-88
2022/06/02 13:49:59;;;;;;;4.20;2.77;;;24.20;66.10;;;;;;4965993;28;20929;-87
2022/06/02 13:53:05;;;;;;;5.40;2.93;;;24.20;65.70;;;;;;4967729;29;20861;-87
2022/06/02 14:02:38;;;;;;;5.10;2.50;;;24.10;65.00;;;;;;4969778;28;20468;-88
2022/06/02 14:05:32;;;;;;;5.17;2.40;;;24.10;66.10;;;;;;4964725;28;20461;-87
2022/06/02 14:08:55;;;;;;;6.30;3.23;;;24.10;66.40;;;;;;4962919;29;20458;-89
2022/06/02 14:16:55;;;;;;;4.83;2.77;;;24.60;65.10;;;;;;4922245;29;20502;-89
2022/06/02 14:23:46;;;;;;;5.23;3.03;;;24.20;65.60;;;;;;4863859;29;20860;-88
2022/06/02 14:26:23;;;;;;;4.43;2.50;;;24.30;66.20;;;;;;4912007;29;20460;-89
2022/06/02 14:29:06;;;;;;;5.00;3.00;;;24.50;64.90;;;;;;4914740;29;20448;-89
2022/06/02 14:31:43;;;;;;;5.13;3.80;;;24.50;65.20;;;;;;4907625;29;20941;-88
2022/06/02 14:34:20;;;;;;;4.97;2.63;;;24.50;65.20;;;;;;4985494;23;20536;-87
2022/06/02 14:37:09;;;;;;;5.37;3.13;;;24.50;65.40;;;;;;4968008;29;20414;-88
2022/06/02 14:40:22;;;;;;;6.80;2.70;;;24.40;65.80;;;;;;4959989;29;20457;-89
2022/06/02 14:45:44;;;;;;;8.83;2.93;;;24.50;65.40;;;;;;5106925;23;20561;-89
2022/06/02 14:48:26;;;;;;;5.30;3.37;;;24.60;65.10;;;;;;4962587;29;20459;-89
2022/06/02 14:51:16;;;;;;;4.90;3.10;;;24.70;65.40;;;;;;4966970;29;20488;-89
2022/06/02 14:54:22;;;;;;;4.60;3.10;;;24.70;65.20;;;;;;4961817;28;20489;-89
2022/06/02 14:57:12;;;;;;;10.20;3.43;;;24.40;66.20;;;;;;4962302;28;20513;-89
2022/06/02 15:00:00;;;;;;;4.17;2.27;;;24.10;66.70;;;;;;4962049;29;20454;-90
2022/06/02 15:03:03;;;;;;;6.87;2.90;;;24.10;66.80;;;;;;4961545;29;20568;-89
2022/06/02 15:05:55;;;;;;;6.00;2.67;;;24.10;66.60;;;;;;4961224;28;20413;-89
2022/06/02 15:09:00;;;;;;;3.67;2.40;;;24.20;66.60;;;;;;4975216;28;20453;-90
2022/06/02 15:11:59;;;;;;;4.10;2.80;;;24.10;66.90;;;;;;4973899;28;20421;-88
2022/06/02 15:18:18;;;;;;;6.80;2.67;;;24.00;68.70;;;;;;4952377;28;20461;-90
2022/06/02 15:21:08;;;;;;;5.13;2.60;;;23.80;69.00;;;;;;4940297;29;20549;-91
2022/06/02 15:24:31;;;;;;;5.90;2.43;;;23.70;69.30;;;;;;4940660;29;20486;-90
2022/06/02 15:28:00;;;;;;;;;;;;;;;;;;;;;
2022/06/02 15:34:29;;;;;;;7.20;3.83;;;23.60;70.40;;;;;;4956189;28;20470;-89
2022/06/02 15:37:35;;;;;;;8.43;4.80;;;23.50;70.00;;;;;;4960881;28;20461;-89
2022/06/02 15:43:40;;;;;;;6.20;3.00;;;23.50;70.20;;;;;;4972936;29;20472;-90
2022/06/02 15:47:16;;;;;;;;;;;;;;;;;;;;;
2022/06/02 15:50:24;;;;;;;5.70;3.87;;;23.30;73.80;;;;;;4961042;29;20565;-90
2022/06/02 15:53:37;;;;;;;6.57;3.90;;;23.30;72.90;;;;;;4968009;28;20477;-89
2022/06/02 15:56:38;;;;;;;5.93;5.00;;;23.30;72.10;;;;;;4966524;28;20596;-89
2022/06/02 16:14:15;;;;;;;5.47;3.50;;;23.60;71.20;;;;;;4866449;29;20476;-89
2022/06/02 16:41:55;;;;;;;4.67;2.73;;;24.30;70.80;;;;;;4731277;30;20545;-90
2022/06/02 16:45:17;;;;;;;4.93;2.70;;;24.50;69.80;;;;;;4829936;29;21001;-91
2022/06/02 16:51:22;;;;;;;4.87;2.80;;;24.80;68.50;;;;;;4841980;29;20441;-89
2022/06/02 16:54:27;;;;;;;6.73;3.20;;;24.90;68.90;;;;;;4849685;29;20533;-90
2022/06/02 17:08:17;;;;;;;5.23;3.77;;;24.60;69.20;;;;;;4910487;29;20445;-90
2022/06/02 17:14:21;;;;;;;6.70;3.20;;;24.50;69.00;;;;;;4924148;29;20470;-91
2022/06/02 17:17:36;;;;;;;4.37;2.40;;;24.50;69.00;;;;;;4923563;29;20463;-90
2022/06/02 17:20:38;;;;;;;5.30;3.20;;;24.40;69.00;;;;;;4864413;29;20462;-90
2022/06/02 17:26:27;;;;;;;7.10;6.07;;;24.40;68.80;;;;;;5034527;23;20496;-89
2022/06/02 17:33:03;;;;;;;4.50;3.00;;;24.30;69.10;;;;;;4859785;29;20444;-90
2022/06/02 17:35:53;;;;;;;6.53;3.70;;;24.40;69.50;;;;;;4954231;28;20496;-89
2022/06/02 17:38:46;;;;;;;6.20;3.43;;;24.40;69.50;;;;;;4962410;29;20449;-89
2022/06/02 17:41:34;;;;;;;6.73;3.63;;;24.70;69.70;;;;;;4963458;29;20445;-89
2022/06/02 17:44:17;;;;;;;6.80;3.63;;;24.70;69.60;;;;;;4963756;28;20489;-89
2022/06/02 17:47:26;;;;;;;6.17;3.63;;;24.50;69.50;;;;;;4967059;28;20493;-89
2022/06/02 17:50:37;;;;;;;6.67;3.77;;;24.40;69.80;;;;;;4965938;29;20470;-90
2022/06/02 17:53:20;;;;;;;5.13;3.57;;;24.20;70.30;;;;;;4958646;28;21065;-90
2022/06/02 17:56:04;;;;;;;5.90;3.23;;;24.10;71.00;;;;;;4963500;29;20468;-88
2022/06/02 18:02:12;;;;;;;4.50;2.63;;;24.00;71.30;;;;;;4904488;29;20444;-91
2022/06/02 18:04:56;;;;;;;6.40;3.30;;;24.00;71.50;;;;;;4904764;29;20626;-92
2022/06/02 18:11:23;;;;;;;5.00;3.30;;;24.00;72.90;;;;;;4901343;29;20453;-91
2022/06/02 18:14:16;;;;;;;4.77;3.53;;;23.80;72.40;;;;;;4951343;28;20477;-91
2022/06/02 18:17:37;;;;;;;6.43;4.30;;;23.60;73.40;;;;;;4977857;28;20587;-91
2022/06/02 18:27:11;;;;;;;7.53;3.90;;;23.50;74.60;;;;;;4967772;29;20934;-92
2022/06/02 18:30:28;;;;;;;4.13;3.10;;;23.40;74.90;;;;;;4941480;29;20476;-91
2022/06/02 18:37:04;;;;;;;7.37;3.93;;;23.30;75.50;;;;;;4959085;28;20489;-92
2022/06/02 18:40:02;;;;;;;6.00;3.07;;;23.20;75.90;;;;;;4978738;28;20505;-89
2022/06/02 18:42:59;;;;;;;6.93;4.40;;;23.20;76.20;;;;;;4977705;28;20422;-90
2022/06/02 18:45:59;;;;;;;5.30;3.23;;;23.30;76.40;;;;;;4966429;29;20466;-90
2022/06/02 18:48:55;;;;;;;7.33;3.60;;;23.20;76.60;;;;;;4972374;29;20442;-89
2022/06/02 18:51:55;;;;;;;7.63;5.03;;;23.20;77.00;;;;;;4961636;29;20458;-89
2022/06/02 18:54:43;;;;;;;6.20;3.83;;;23.10;77.50;;;;;;4963940;29;20549;-89
2022/06/02 18:57:19;;;;;;;5.70;3.97;;;22.90;78.80;;;;;;4975147;28;20612;-89
2022/06/02 19:00:14;;;;;;;7.63;4.17;;;22.80;80.00;;;;;;4978723;28;20449;-90
2022/06/02 19:03:18;;;;;;;7.27;5.00;;;22.80;80.70;;;;;;4976861;28;20470;-90
2022/06/02 19:15:49;;;;;;;7.20;4.30;;;22.40;83.00;;;;;;4978690;28;20428;-88
2022/06/02 19:18:44;;;;;;;8.20;5.23;;;22.30;83.80;;;;;;4965840;28;20935;-90
2022/06/02 19:21:32;;;;;;;8.27;6.10;;;22.20;84.70;;;;;;4952332;29;20489;-89
2022/06/02 19:24:21;;;;;;;11.40;7.83;;;22.10;87.40;;;;;;4972499;28;20472;-89
2022/06/02 19:27:17;;;;;;;7.70;5.60;;;22.10;88.10;;;;;;4971479;29;20486;-89
2022/06/02 19:29:59;;;;;;;8.03;6.03;;;22.10;88.50;;;;;;4972030;29;20783;-89
2022/06/02 19:33:00;;;;;;;10.90;6.73;;;22.10;88.70;;;;;;4962393;28;20489;-91
2022/06/02 19:35:36;;;;;;;8.67;5.10;;;22.00;89.20;;;;;;4959894;29;20426;-90
2022/06/02 19:38:11;;;;;;;8.53;6.97;;;21.90;89.80;;;;;;4960684;28;20481;-90
2022/06/02 19:40:51;;;;;;;6.80;4.87;;;21.70;90.00;;;;;;4963017;29;20469;-90
2022/06/02 19:43:25;;;;;;;7.73;5.37;;;21.80;90.20;;;;;;4960215;28;20851;-90
2022/06/02 19:46:00;;;;;;;8.40;4.80;;;21.70;90.20;;;;;;4962015;29;20809;-90
2022/06/02 19:48:32;;;;;;;12.23;4.77;;;21.60;90.30;;;;;;4958756;29;20459;-90
2022/06/02 19:51:08;;;;;;;6.40;4.23;;;21.60;90.40;;;;;;4963682;28;20427;-90
2022/06/02 19:53:41;;;;;;;9.00;4.80;;;21.50;90.60;;;;;;4968693;28;20473;-90
2022/06/02 19:56:15;;;;;;;7.20;4.90;;;21.40;90.90;;;;;;4960570;29;20568;-88
2022/06/02 19:58:50;;;;;;;8.80;4.47;;;21.20;91.20;;;;;;4963181;29;20513;-90
2022/06/02 20:01:37;;;;;;;5.20;3.77;;;21.20;91.60;;;;;;4964597;29;20441;-90
2022/06/02 20:04:22;;;;;;;9.27;6.50;;;21.20;91.70;;;;;;4961955;29;20460;-90
2022/06/02 20:07:07;;;;;;;6.77;4.43;;;21.20;91.90;;;;;;4960407;29;20508;-89
2022/06/02 20:09:37;;;;;;;9.60;4.17;;;21.00;92.00;;;;;;4967557;29;20463;-90
2022/06/02 20:12:41;;;;;;;8.43;4.20;;;20.80;92.80;;;;;;4977576;28;20434;-88
2022/06/02 20:15:10;;;;;;;7.23;5.03;;;20.80;93.10;;;;;;4978811;28;20453;-88
2022/06/02 20:17:47;;;;;;;9.70;4.47;;;20.60;93.40;;;;;;4972461;28;20500;-89
2022/06/02 20:20:21;;;;;;;6.83;4.70;;;20.50;93.80;;;;;;4958203;29;20508;-89
2022/06/02 20:22:57;;;;;;;10.30;5.90;;;20.50;94.10;;;;;;4958158;28;20489;-89
2022/06/02 20:25:29;;;;;;;10.13;5.00;;;20.30;94.60;;;;;;4957299;29;20487;-90
2022/06/02 20:28:01;;;;;;;5.80;4.37;;;20.30;95.10;;;;;;4958696;29;20545;-89
2022/06/02 20:30:31;;;;;;;6.57;4.50;;;20.20;95.30;;;;;;4962227;29;20425;-90
2022/06/02 20:33:20;;;;;;;4.70;3.77;;;20.20;95.60;;;;;;5005498;23;20482;-87
2022/06/02 20:35:59;;;;;;;5.07;3.93;;;20.10;96.00;;;;;;4964610;29;20454;-87
2022/06/02 20:42:20;;;;;;;4.60;3.20;;;20.00;96.90;;;;;;4942576;28;20942;-87
2022/06/02 20:45:03;;;;;;;6.60;4.50;;;19.90;97.40;;;;;;4963825;29;20484;-86
2022/06/02 20:48:01;;;;;;;9.40;4.93;;;19.80;97.80;;;;;;4962693;29;20457;-86
2022/06/02 20:50:39;;;;;;;9.67;5.07;;;19.80;98.30;;;;;;4958519;28;20931;-87
2022/06/02 20:53:10;;;;;;;6.30;4.33;;;19.70;98.80;;;;;;4964139;29;20490;-88
2022/06/02 20:55:51;;;;;;;5.80;4.57;;;19.70;99.00;;;;;;4963232;28;20516;-87
2022/06/02 20:58:32;;;;;;;8.47;5.40;;;19.70;99.30;;;;;;4964725;29;20477;-87
2022/06/02 21:01:17;;;;;;;8.03;4.60;;;19.60;99.60;;;;;;4964423;28;20424;-88
2022/06/02 21:04:06;;;;;;;7.50;4.33;;;19.60;99.80;;;;;;4963649;29;20465;-87
2022/06/02 21:06:43;;;;;;;8.33;4.40;;;19.60;99.90;;;;;;4962801;29;20442;-87
2022/06/02 21:09:18;;;;;;;7.47;3.33;;;19.50;99.90;;;;;;4963097;29;20945;-86
2022/06/02 21:11:55;;;;;;;6.77;3.50;;;19.50;99.90;;;;;;4964622;29;20455;-87
2022/06/02 21:14:27;;;;;;;5.40;4.00;;;19.50;99.90;;;;;;4965018;29;20536;-87
2022/06/02 21:17:03;;;;;;;8.17;4.67;;;19.50;99.90;;;;;;4964413;29;20482;-86
2022/06/02 21:19:41;;;;;;;5.27;4.10;;;19.30;99.90;;;;;;4969562;29;20527;-86
2022/06/02 21:22:21;;;;;;;6.03;4.20;;;19.30;99.90;;;;;;4965406;29;20476;-88
2022/06/02 21:25:09;;;;;;;5.47;3.93;;;19.20;99.90;;;;;;4964900;29;20464;-87
2022/06/02 21:27:38;;;;;;;5.17;4.10;;;19.10;99.90;;;;;;4962664;29;20513;-87
2022/06/02 21:30:20;;;;;;;10.37;5.20;;;19.10;99.90;;;;;;4970967;29;20493;-86
2022/06/02 21:32:52;;;;;;;5.77;4.10;;;19.00;99.90;;;;;;4963661;28;20503;-88
2022/06/02 21:35:34;;;;;;;6.33;4.50;;;19.10;99.90;;;;;;4963892;28;20457;-86
2022/06/02 21:38:03;;;;;;;7.30;3.70;;;19.00;99.90;;;;;;4964875;29;20488;-88
2022/06/02 21:40:39;;;;;;;7.97;4.13;;;19.00;99.90;;;;;;4965482;29;20981;-88
2022/06/02 21:43:15;;;;;;;6.03;4.20;;;19.00;99.90;;;;;;4965332;29;20483;-87
2022/06/02 21:45:51;;;;;;;5.93;4.07;;;18.90;99.90;;;;;;4967131;28;20448;-87
2022/06/02 21:48:26;;;;;;;7.70;4.60;;;18.90;99.90;;;;;;4969991;29;20537;-86
2022/06/02 21:51:39;;;;;;;6.50;4.30;;;18.80;99.90;;;;;;4972575;28;20497;-84
2022/06/02 21:54:27;;;;;;;7.97;4.90;;;18.80;99.90;;;;;;4982534;28;20468;-85
2022/06/02 21:57:01;;;;;;;8.53;5.27;;;18.80;99.90;;;;;;4975278;28;20894;-86
2022/06/02 21:59:40;;;;;;;7.00;4.40;;;18.60;99.90;;;;;;4963972;29;20452;-86
2022/06/02 22:02:16;;;;;;;9.80;4.80;;;18.60;99.90;;;;;;4964845;28;20456;-86
2022/06/02 22:04:47;;;;;;;10.97;5.03;;;18.60;99.90;;;;;;4974094;28;20471;-86
2022/06/02 22:07:22;;;;;;;9.37;5.57;;;18.60;99.90;;;;;;4981906;28;20425;-86
2022/06/02 22:09:59;;;;;;;5.90;4.63;;;18.60;99.90;;;;;;4976420;29;20437;-87
2022/06/02 22:12:37;;;;;;;7.43;4.63;;;18.50;99.90;;;;;;4978740;29;20425;-89
2022/06/02 22:15:15;;;;;;;6.77;5.23;;;18.50;99.90;;;;;;4980381;28;20440;-87
2022/06/02 22:17:48;;;;;;;7.60;5.07;;;18.40;99.90;;;;;;4976994;29;20503;-88
2022/06/02 22:20:23;;;;;;;6.70;4.93;;;18.30;99.90;;;;;;4978671;28;20449;-87
2022/06/02 22:23:04;;;;;;;5.77;4.50;;;18.40;99.90;;;;;;4975953;29;20494;-88
2022/06/02 22:25:39;;;;;;;7.80;4.83;;;18.40;99.90;;;;;;4969652;29;20450;-87
2022/06/02 22:28:19;;;;;;;5.73;4.20;;;18.50;99.90;;;;;;4967919;29;20452;-88
2022/06/02 22:31:11;;;;;;;6.90;5.00;;;18.40;99.90;;;;;;4967694;29;20450;-87
2022/06/02 22:33:51;;;;;;;7.00;4.30;;;18.40;99.90;;;;;;4966213;29;20997;-87
2022/06/02 22:36:46;;;;;;;7.83;4.90;;;18.30;99.90;;;;;;4964653;29;20460;-87
2022/06/02 22:39:36;;;;;;;7.40;4.77;;;18.10;99.90;;;;;;4963487;28;20492;-87
2022/06/02 22:42:11;;;;;;;8.13;4.90;;;18.00;99.90;;;;;;4963953;29;20428;-87
2022/06/02 22:45:04;;;;;;;7.70;5.30;;;18.00;99.90;;;;;;4964523;29;20988;-87
2022/06/02 22:48:03;;;;;;;6.80;4.60;;;18.00;99.90;;;;;;4936506;29;20444;-87
2022/06/02 22:50:49;;;;;;;6.53;4.83;;;17.90;99.90;;;;;;4948843;28;20453;-87
2022/06/02 22:53:33;;;;;;;6.63;4.87;;;17.90;99.90;;;;;;4980253;28;20475;-86
2022/06/02 22:56:04;;;;;;;5.77;4.80;;;17.90;99.90;;;;;;4980014;28;20437;-87
2022/06/02 22:59:14;;;;;;;6.20;4.43;;;17.70;99.90;;;;;;4975953;29;20986;-87
2022/06/02 23:02:17;;;;;;;5.83;4.70;;;17.70;99.90;;;;;;4915765;29;20460;-87
2022/06/02 23:05:31;;;;;;;10.00;4.70;;;17.70;99.90;;;;;;4963822;29;20488;-87
2022/06/02 23:08:17;;;;;;;9.10;4.27;;;17.70;99.90;;;;;;4963922;29;20499;-87
2022/06/02 23:10:59;;;;;;;5.27;4.30;;;17.60;99.90;;;;;;4964227;29;20474;-86
2022/06/02 23:13:51;;;;;;;12.43;4.83;;;17.50;99.90;;;;;;4962699;29;20515;-87
2022/06/02 23:16:39;;;;;;;6.53;4.57;;;17.50;99.90;;;;;;4961540;29;20453;-88
2022/06/02 23:19:29;;;;;;;5.40;4.50;;;17.60;99.90;;;;;;4978626;28;20433;-84
2022/06/02 23:22:20;;;;;;;5.63;4.63;;;17.50;99.90;;;;;;4981170;28;20461;-85
2022/06/02 23:24:59;;;;;;;6.03;4.47;;;17.50;99.90;;;;;;4974359;28;20952;-86
2022/06/02 23:28:11;;;;;;;8.33;4.57;;;17.40;99.90;;;;;;4969507;29;20460;-87